createdAt,value
2017-12-11T00:01:04.820Z,3.70
2017-12-11T00:03:31.564Z,3.07
2017-12-11T00:05:58.302Z,3.50
2017-12-11T00:08:25.014Z,3.40
2017-12-11T00:10:51.782Z,3.70
2017-12-11T00:13:18.528Z,2.93
2017-12-11T00:15:45.312Z,3.50
2017-12-11T00:18:12.068Z,3.27
2017-12-11T00:20:38.813Z,3.17
2017-12-11T00:23:05.548Z,3.57
2017-12-11T00:25:32.290Z,3.20
2017-12-11T00:27:59.017Z,2.70
2017-12-11T00:30:25.735Z,3.13
2017-12-11T00:32:52.494Z,2.93
2017-12-11T00:35:19.359Z,3.17
2017-12-11T00:37:46.108Z,3.33
2017-12-11T00:40:12.864Z,2.47
2017-12-11T00:42:39.602Z,2.90
2017-12-11T00:45:06.345Z,2.20
2017-12-11T00:47:33.117Z,2.47
2017-12-11T00:49:59.844Z,2.77
2017-12-11T00:52:26.587Z,2.80
2017-12-11T00:54:53.318Z,2.40
2017-12-11T00:57:20.048Z,3.30
2017-12-11T00:59:46.802Z,2.67
2017-12-11T01:02:13.540Z,2.40
2017-12-11T01:04:40.285Z,2.33
2017-12-11T01:07:07.019Z,2.27
2017-12-11T01:09:33.769Z,2.60
2017-12-11T01:12:00.493Z,3.00
2017-12-11T01:14:27.248Z,2.40
2017-12-11T01:16:54.032Z,2.03
2017-12-11T01:19:20.729Z,2.50
2017-12-11T01:21:47.459Z,2.10
2017-12-11T01:24:14.198Z,2.13
2017-12-11T01:26:40.942Z,1.80
2017-12-11T01:29:07.678Z,1.80
2017-12-11T01:31:34.419Z,2.60
2017-12-11T01:34:01.189Z,2.20
2017-12-11T01:36:27.902Z,1.77
2017-12-11T01:38:54.655Z,2.30
2017-12-11T01:41:21.388Z,2.20
2017-12-11T01:43:48.121Z,2.27
2017-12-11T01:46:14.867Z,1.90
2017-12-11T01:48:41.607Z,1.70
2017-12-11T01:51:08.335Z,2.17
2017-12-11T01:53:35.104Z,2.20
2017-12-11T01:56:01.816Z,1.80
2017-12-11T01:58:28.590Z,2.08
2017-12-11T02:00:55.325Z,1.50
2017-12-11T02:03:22.052Z,1.70
2017-12-11T02:05:48.776Z,1.47
2017-12-11T02:08:15.514Z,2.00
2017-12-11T02:10:42.250Z,1.80
2017-12-11T02:13:08.968Z,1.60
2017-12-11T02:15:35.734Z,1.73
2017-12-11T02:18:02.503Z,1.93
2017-12-11T02:20:29.301Z,1.77
2017-12-11T02:22:56.086Z,1.60
2017-12-11T02:25:22.873Z,1.63
2017-12-11T02:27:49.613Z,1.60
2017-12-11T02:30:16.372Z,1.70
2017-12-11T02:32:43.112Z,1.77
2017-12-11T02:35:09.846Z,1.47
2017-12-11T02:37:36.599Z,1.83
2017-12-11T02:40:03.379Z,1.60
2017-12-11T02:42:30.155Z,1.60
2017-12-11T02:44:56.922Z,1.83
2017-12-11T02:47:23.700Z,1.63
2017-12-11T02:49:50.489Z,1.67
2017-12-11T02:52:17.274Z,1.47
2017-12-11T02:54:43.990Z,1.63
2017-12-11T02:57:10.707Z,2.17
2017-12-11T02:59:37.483Z,1.57
2017-12-11T03:02:04.201Z,1.50
2017-12-11T03:04:30.950Z,1.53
2017-12-11T03:06:58.068Z,1.30
2017-12-11T03:09:24.824Z,1.73
2017-12-11T03:11:51.572Z,1.70
2017-12-11T03:14:18.298Z,1.20
2017-12-11T03:16:45.051Z,1.40
2017-12-11T03:19:11.785Z,1.50
2017-12-11T03:21:38.672Z,1.27
2017-12-11T03:24:05.385Z,1.40
2017-12-11T03:26:32.111Z,1.60
2017-12-11T03:28:58.847Z,1.33
2017-12-11T03:31:25.611Z,1.50
2017-12-11T03:33:52.370Z,1.37
2017-12-11T03:36:19.120Z,1.90
2017-12-11T03:38:45.879Z,1.50
2017-12-11T03:41:12.616Z,1.87
2017-12-11T03:43:39.349Z,1.60
2017-12-11T03:46:06.080Z,1.50
2017-12-11T03:48:32.825Z,1.70
2017-12-11T03:50:59.566Z,2.03
2017-12-11T03:53:26.277Z,1.53
2017-12-11T03:55:53.014Z,1.23
2017-12-11T03:58:19.755Z,1.60
2017-12-11T04:00:46.527Z,1.60
2017-12-11T04:03:13.268Z,1.27
2017-12-11T04:05:40.006Z,1.87
2017-12-11T04:08:06.722Z,1.53
2017-12-11T04:10:33.438Z,1.70
2017-12-11T04:13:00.182Z,1.47
2017-12-11T04:15:27.040Z,1.70
2017-12-11T04:17:53.761Z,1.53
2017-12-11T04:20:20.488Z,1.30
2017-12-11T04:22:47.202Z,1.50
2017-12-11T04:25:13.940Z,1.30
2017-12-11T04:27:40.691Z,1.40
2017-12-11T04:30:07.416Z,1.47
2017-12-11T04:32:34.135Z,1.53
2017-12-11T04:35:00.900Z,1.50
2017-12-11T04:37:27.630Z,1.77
2017-12-11T04:39:54.395Z,2.07
2017-12-11T04:42:21.170Z,1.73
2017-12-11T04:44:47.871Z,1.70
2017-12-11T04:47:14.592Z,1.40
2017-12-11T04:49:41.346Z,1.70
2017-12-11T04:52:08.070Z,1.20
2017-12-11T04:54:34.793Z,1.60
2017-12-11T04:57:01.518Z,1.63
2017-12-11T04:59:28.258Z,1.60
2017-12-11T05:01:54.966Z,1.40
2017-12-11T05:04:21.698Z,1.70
2017-12-11T05:06:48.460Z,1.60
2017-12-11T05:09:15.179Z,1.77
2017-12-11T05:11:41.908Z,2.30
2017-12-11T05:14:08.630Z,2.30
2017-12-11T05:16:35.357Z,1.97
2017-12-11T05:19:02.097Z,2.40
2017-12-11T05:21:28.838Z,1.98
2017-12-11T05:23:55.571Z,2.27
2017-12-11T05:26:22.315Z,2.17
2017-12-11T05:28:49.034Z,2.20
2017-12-11T05:31:15.742Z,1.97
2017-12-11T05:33:42.502Z,2.10
2017-12-11T05:36:09.278Z,1.70
2017-12-11T05:38:36.002Z,2.13
2017-12-11T05:41:02.768Z,3.00
2017-12-11T05:43:29.505Z,3.00
2017-12-11T05:45:56.221Z,2.80
2017-12-11T05:48:22.988Z,2.40
2017-12-11T05:50:49.790Z,2.47
2017-12-11T05:53:16.494Z,2.33
2017-12-11T05:55:43.223Z,2.23
2017-12-11T05:58:09.934Z,2.30
2017-12-11T06:00:36.656Z,2.10
2017-12-11T06:03:03.424Z,2.80
2017-12-11T06:05:30.140Z,2.37
2017-12-11T06:07:56.873Z,1.93
2017-12-11T06:10:23.627Z,2.07
2017-12-11T06:12:50.369Z,2.27
2017-12-11T06:15:17.088Z,2.13
2017-12-11T06:17:43.837Z,2.17
2017-12-11T06:20:10.577Z,1.60
2017-12-11T06:22:37.317Z,2.10
2017-12-11T06:25:04.058Z,3.87
2017-12-11T06:27:30.823Z,2.70
2017-12-11T06:29:57.545Z,2.60
2017-12-11T06:32:24.278Z,2.37
2017-12-11T06:34:51.160Z,3.43
2017-12-11T06:37:17.867Z,2.77
2017-12-11T06:39:44.611Z,2.27
2017-12-11T06:42:11.376Z,2.37
2017-12-11T06:44:38.089Z,2.30
2017-12-11T06:47:04.849Z,2.00
2017-12-11T06:49:31.579Z,2.53
2017-12-11T06:51:58.308Z,1.90
2017-12-11T06:54:25.088Z,2.40
2017-12-11T06:56:51.897Z,4.73
2017-12-11T06:59:18.699Z,2.80
2017-12-11T07:01:45.429Z,3.03
2017-12-11T07:04:12.159Z,2.70
2017-12-11T07:06:38.865Z,2.60
2017-12-11T07:09:05.578Z,2.80
2017-12-11T07:11:32.278Z,2.20
2017-12-11T07:13:58.985Z,2.80
2017-12-11T07:16:25.721Z,2.47
2017-12-11T07:18:52.427Z,2.60
2017-12-11T07:21:19.120Z,2.40
2017-12-11T07:23:46.066Z,1.73
2017-12-11T07:26:12.780Z,2.97
2017-12-11T07:28:39.489Z,2.30
2017-12-11T07:31:06.249Z,3.00
2017-12-11T07:33:32.955Z,2.70
2017-12-11T07:35:59.658Z,3.20
2017-12-11T07:38:26.382Z,3.83
2017-12-11T07:40:53.118Z,4.37
2017-12-11T07:43:19.872Z,5.63
2017-12-11T07:45:46.592Z,4.90
2017-12-11T07:48:13.349Z,5.17
2017-12-11T07:50:40.074Z,4.27
2017-12-11T07:53:06.798Z,4.47
2017-12-11T07:55:33.506Z,4.33
2017-12-11T07:58:00.206Z,4.30
2017-12-11T08:00:26.936Z,4.57
2017-12-11T08:02:53.658Z,3.80
2017-12-11T08:05:20.365Z,4.30
2017-12-11T08:07:47.106Z,4.43
2017-12-11T08:10:13.809Z,4.17
2017-12-11T08:12:40.579Z,3.43
2017-12-11T08:15:07.366Z,3.47
2017-12-11T08:17:34.222Z,4.40
2017-12-11T08:20:00.930Z,4.13
2017-12-11T08:22:27.675Z,3.50
2017-12-11T08:24:54.391Z,3.50
2017-12-11T08:27:21.094Z,3.70
2017-12-11T08:29:47.859Z,3.17
2017-12-11T08:32:14.579Z,3.50
2017-12-11T08:34:41.290Z,3.43
2017-12-11T08:37:08.021Z,4.23
2017-12-11T08:39:34.759Z,3.63
2017-12-11T08:42:01.484Z,3.30
2017-12-11T08:44:28.218Z,3.97
2017-12-11T08:46:54.925Z,4.00
2017-12-11T08:49:21.629Z,4.00
2017-12-11T08:51:48.351Z,4.07
2017-12-11T08:54:15.082Z,3.73
2017-12-11T08:56:41.810Z,4.00
2017-12-11T08:59:08.567Z,3.77
2017-12-11T09:01:35.409Z,3.57
2017-12-11T09:04:02.147Z,4.00
2017-12-11T09:06:28.862Z,4.50
2017-12-11T09:08:55.569Z,3.87
2017-12-11T09:11:22.274Z,3.80
2017-12-11T09:14:08.792Z,4.17
2017-12-11T09:16:35.504Z,4.70
2017-12-11T09:19:02.240Z,4.40
2017-12-11T09:21:28.949Z,4.07
2017-12-11T09:23:55.656Z,4.03
2017-12-11T09:26:22.423Z,3.73
2017-12-11T09:28:49.133Z,4.20
2017-12-11T09:31:15.845Z,4.17
2017-12-11T09:33:42.589Z,3.40
2017-12-11T09:36:09.305Z,3.77
2017-12-11T09:38:36.003Z,3.60
2017-12-11T09:41:02.786Z,3.40
2017-12-11T09:43:29.517Z,3.60
2017-12-11T09:45:56.229Z,3.37
2017-12-11T09:48:22.956Z,3.87
2017-12-11T09:50:49.694Z,3.90
2017-12-11T09:53:16.397Z,4.37
2017-12-11T09:55:43.133Z,4.50
2017-12-11T09:58:09.851Z,4.43
2017-12-11T10:00:36.606Z,7.00
2017-12-11T10:03:03.364Z,7.30
2017-12-11T10:05:30.407Z,8.13
2017-12-11T10:07:57.114Z,6.90
2017-12-11T10:10:23.877Z,7.20
2017-12-11T10:12:50.679Z,6.20
2017-12-11T10:15:17.692Z,6.23
2017-12-11T10:17:44.440Z,7.23
2017-12-11T10:20:11.182Z,8.37
2017-12-11T10:22:37.893Z,9.30
2017-12-11T10:25:04.673Z,8.37
2017-12-11T10:27:31.422Z,9.47
2017-12-11T10:29:58.138Z,7.27
2017-12-11T10:32:24.950Z,8.20
2017-12-11T10:34:51.689Z,7.40
2017-12-11T10:37:18.429Z,6.70
2017-12-11T10:39:45.209Z,8.83
2017-12-11T10:42:11.920Z,7.03
2017-12-11T10:44:38.635Z,7.60
2017-12-11T10:47:05.375Z,7.63
2017-12-11T10:49:32.098Z,7.20
2017-12-11T10:51:58.828Z,6.90
2017-12-11T10:54:25.643Z,8.60
2017-12-11T10:56:52.360Z,7.10
2017-12-11T10:59:19.082Z,6.83
2017-12-11T11:01:45.824Z,6.10
2017-12-11T11:04:12.534Z,5.73
2017-12-11T11:06:39.269Z,6.40
2017-12-11T11:09:06.000Z,6.70
2017-12-11T11:11:32.745Z,5.73
2017-12-11T11:13:59.470Z,6.40
2017-12-11T11:16:26.206Z,6.43
2017-12-11T11:18:53.053Z,6.60
2017-12-11T11:21:19.768Z,5.90
2017-12-11T11:23:46.498Z,6.73
2017-12-11T11:26:13.239Z,6.00
2017-12-11T11:28:39.994Z,5.70
2017-12-11T11:31:06.725Z,5.83
2017-12-11T11:33:33.439Z,7.17
2017-12-11T11:36:00.149Z,6.47
2017-12-11T11:38:26.918Z,6.07
2017-12-11T11:40:53.635Z,6.00
2017-12-11T11:43:20.359Z,5.90
2017-12-11T11:45:47.097Z,5.20
2017-12-11T11:48:13.811Z,5.53
2017-12-11T11:50:40.532Z,6.87
2017-12-11T11:53:07.320Z,5.53
2017-12-11T11:55:34.061Z,5.90
2017-12-11T11:58:00.846Z,6.00
2017-12-11T12:00:27.621Z,5.80
2017-12-11T12:02:54.604Z,6.40
2017-12-11T12:05:21.508Z,7.23
2017-12-11T12:07:48.279Z,7.27
2017-12-11T12:10:15.015Z,7.10
2017-12-11T12:12:41.747Z,6.47
2017-12-11T12:15:08.495Z,6.10
2017-12-11T12:17:35.207Z,7.50
2017-12-11T12:20:01.935Z,9.90
2017-12-11T12:22:28.695Z,7.63
2017-12-11T12:24:55.430Z,8.13
2017-12-11T12:27:22.163Z,7.73
2017-12-11T12:29:48.904Z,8.63
2017-12-11T12:32:15.618Z,6.73
2017-12-11T12:34:42.346Z,7.13
2017-12-11T12:37:09.085Z,7.83
2017-12-11T12:39:35.816Z,7.20
2017-12-11T12:42:02.548Z,7.70
2017-12-11T12:44:29.274Z,7.23
2017-12-11T12:46:56.011Z,8.40
2017-12-11T12:49:22.735Z,8.00
2017-12-11T12:51:49.475Z,7.30
2017-12-11T12:54:16.219Z,7.60
2017-12-11T12:56:42.955Z,9.50
2017-12-11T12:59:09.690Z,8.23
2017-12-11T13:01:36.405Z,8.77
2017-12-11T13:04:03.119Z,8.60
2017-12-11T13:06:29.871Z,7.77
2017-12-11T13:08:56.618Z,7.07
2017-12-11T13:11:23.356Z,7.67
2017-12-11T13:13:50.068Z,7.30
2017-12-11T13:16:16.779Z,8.67
2017-12-11T13:18:43.530Z,8.70
2017-12-11T13:21:10.258Z,8.67
2017-12-11T13:23:36.979Z,8.73
2017-12-11T13:26:03.767Z,8.00
2017-12-11T13:28:30.504Z,8.17
2017-12-11T13:30:57.215Z,8.17
2017-12-11T13:33:23.919Z,7.87
2017-12-11T13:35:50.656Z,9.30
2017-12-11T13:38:17.368Z,8.77
2017-12-11T13:40:44.082Z,9.67
2017-12-11T13:43:10.830Z,9.40
2017-12-11T13:45:37.594Z,13.03
2017-12-11T13:48:04.319Z,15.70
2017-12-11T13:50:31.054Z,12.60
2017-12-11T13:52:57.791Z,11.57
2017-12-11T13:55:24.518Z,11.60
2017-12-11T13:57:51.268Z,9.17
2017-12-11T14:00:17.980Z,8.50
2017-12-11T14:02:44.698Z,8.13
2017-12-11T14:05:11.417Z,9.30
2017-12-11T14:07:38.142Z,17.30
2017-12-11T14:10:04.859Z,15.40
2017-12-11T14:12:31.584Z,13.20
2017-12-11T14:14:58.322Z,12.53
2017-12-11T14:17:25.030Z,11.00
2017-12-11T14:19:51.942Z,11.93
2017-12-11T14:22:18.755Z,9.87
2017-12-11T14:24:45.555Z,9.90
2017-12-11T14:27:12.286Z,10.10
2017-12-11T14:29:39.019Z,9.63
2017-12-11T14:32:05.754Z,9.77
2017-12-11T14:34:32.498Z,9.30
2017-12-11T14:36:59.271Z,10.30
2017-12-11T14:39:26.077Z,9.97
2017-12-11T14:41:52.888Z,10.27
2017-12-11T14:44:19.649Z,9.83
2017-12-11T14:46:46.354Z,10.10
2017-12-11T14:49:13.086Z,9.60
2017-12-11T14:51:39.841Z,14.30
2017-12-11T14:54:06.568Z,7.60
2017-12-11T14:56:33.325Z,9.03
2017-12-11T14:59:00.034Z,8.60
2017-12-11T15:01:26.766Z,10.63
2017-12-11T15:03:53.501Z,9.57
2017-12-11T15:06:20.225Z,10.20
2017-12-11T15:08:46.949Z,9.30
2017-12-11T15:11:13.686Z,8.97
2017-12-11T15:13:40.414Z,9.30
2017-12-11T15:16:07.129Z,10.27
2017-12-11T15:18:33.861Z,9.13
2017-12-11T15:21:00.585Z,9.70
2017-12-11T15:23:27.306Z,9.77
2017-12-11T15:25:54.038Z,10.03
2017-12-11T15:28:20.783Z,9.63
2017-12-11T15:30:47.544Z,9.30
2017-12-11T15:33:14.283Z,9.57
2017-12-11T15:35:41.017Z,9.23
2017-12-11T15:38:07.757Z,8.90
2017-12-11T15:40:34.512Z,8.40
2017-12-11T15:43:01.250Z,9.63
2017-12-11T15:45:27.992Z,7.97
2017-12-11T15:47:54.735Z,8.10
2017-12-11T15:50:21.498Z,9.17
2017-12-11T15:52:48.260Z,8.10
2017-12-11T15:55:15.005Z,8.97
2017-12-11T15:57:41.766Z,8.67
2017-12-11T16:00:08.544Z,9.30
2017-12-11T16:02:35.376Z,10.50
2017-12-11T16:05:02.102Z,9.23
2017-12-11T16:07:28.862Z,9.73
2017-12-11T16:09:55.607Z,12.23
2017-12-11T16:12:22.349Z,13.80
2017-12-11T16:14:49.103Z,13.73
2017-12-11T16:17:15.852Z,11.23
2017-12-11T16:19:42.638Z,12.43
2017-12-11T16:22:09.385Z,12.47
2017-12-11T16:24:36.130Z,10.90
2017-12-11T16:27:02.874Z,12.40
2017-12-11T16:29:29.630Z,14.17
2017-12-11T16:31:56.371Z,11.43
2017-12-11T16:34:23.094Z,11.33
2017-12-11T16:36:49.847Z,10.70
2017-12-11T16:39:16.594Z,11.23
2017-12-11T16:41:43.322Z,12.70
2017-12-11T16:44:10.057Z,11.93
2017-12-11T16:46:36.810Z,11.13
2017-12-11T16:49:03.560Z,11.13
2017-12-11T16:51:30.305Z,12.23
2017-12-11T16:53:57.054Z,12.87
2017-12-11T16:56:23.798Z,11.13
2017-12-11T16:58:50.524Z,10.60
2017-12-11T17:01:17.392Z,11.97
2017-12-11T17:03:44.144Z,11.40
2017-12-11T17:06:10.882Z,11.90
2017-12-11T17:08:37.660Z,10.93
2017-12-11T17:11:04.389Z,9.83
2017-12-11T17:13:31.131Z,11.00
2017-12-11T17:15:57.894Z,12.03
2017-12-11T17:18:24.616Z,11.37
2017-12-11T17:20:51.322Z,10.50
2017-12-11T17:23:18.071Z,9.20
2017-12-11T17:25:44.799Z,10.53
2017-12-11T17:28:11.597Z,11.50
2017-12-11T17:30:38.321Z,11.10
2017-12-11T17:33:05.077Z,12.67
2017-12-11T17:35:31.805Z,15.60
2017-12-11T17:37:58.558Z,10.27
2017-12-11T17:40:25.293Z,10.23
2017-12-11T17:42:52.017Z,10.93
2017-12-11T17:45:18.809Z,10.47
2017-12-11T17:47:45.532Z,11.40
2017-12-11T17:50:12.244Z,9.97
2017-12-11T17:52:38.974Z,8.70
2017-12-11T17:55:05.711Z,9.87
2017-12-11T17:57:32.446Z,9.43
2017-12-11T17:59:59.195Z,8.93
2017-12-11T18:02:25.963Z,9.57
2017-12-11T18:04:52.688Z,8.63
2017-12-11T18:07:19.437Z,9.53
2017-12-11T18:09:46.182Z,9.30
2017-12-11T18:12:12.902Z,7.70
2017-12-11T18:14:39.657Z,7.70
2017-12-11T18:17:06.373Z,8.27
2017-12-11T18:19:33.118Z,10.57
2017-12-11T18:21:59.856Z,9.00
2017-12-11T18:24:26.584Z,8.00
2017-12-11T18:26:53.373Z,9.10
2017-12-11T18:29:20.118Z,8.10
2017-12-11T18:31:46.839Z,8.93
2017-12-11T18:34:13.570Z,8.07
2017-12-11T18:36:40.321Z,9.70
2017-12-11T18:39:07.032Z,9.07
2017-12-11T18:41:33.792Z,7.90
2017-12-11T18:44:00.531Z,7.67
2017-12-11T18:46:27.271Z,9.10
2017-12-11T18:48:53.988Z,8.60
2017-12-11T18:51:20.903Z,6.93
2017-12-11T18:53:47.628Z,7.60
2017-12-11T18:56:14.349Z,8.53
2017-12-11T18:58:41.099Z,8.10
2017-12-11T19:01:07.852Z,8.83
2017-12-11T19:03:34.604Z,8.30
2017-12-11T19:06:01.386Z,7.60
2017-12-11T19:08:28.145Z,9.07
2017-12-11T19:10:54.883Z,7.87
2017-12-11T19:13:21.671Z,8.27
2017-12-11T19:15:48.403Z,7.23
2017-12-11T19:18:15.138Z,8.33
2017-12-11T19:20:41.890Z,8.03
2017-12-11T19:23:08.652Z,7.17
2017-12-11T19:25:35.423Z,6.43
2017-12-11T19:28:02.578Z,7.30
2017-12-11T19:30:29.485Z,8.50
2017-12-11T19:32:56.490Z,7.67
2017-12-11T19:35:23.593Z,9.00
2017-12-11T19:37:50.389Z,8.77
2017-12-11T19:40:17.126Z,8.90
2017-12-11T19:42:44.229Z,7.67
2017-12-11T19:45:11.042Z,8.80
2017-12-11T19:47:37.788Z,7.33
2017-12-11T19:50:04.804Z,8.53
2017-12-11T19:52:31.838Z,8.23
2017-12-11T19:54:58.583Z,8.80
2017-12-11T19:57:25.577Z,8.97
2017-12-11T19:59:52.347Z,8.50
2017-12-11T20:02:19.080Z,7.80
2017-12-11T20:04:45.882Z,9.40
2017-12-11T20:07:12.893Z,8.67
2017-12-11T20:09:39.919Z,7.87
2017-12-11T20:12:06.978Z,7.00
2017-12-11T20:14:33.996Z,6.53
2017-12-11T20:17:01.026Z,5.87
2017-12-11T20:19:27.872Z,5.30
2017-12-11T20:21:54.873Z,5.50
2017-12-11T20:24:21.642Z,4.73
2017-12-11T20:26:48.706Z,4.63
2017-12-11T20:29:23.337Z,4.00
2017-12-11T20:31:51.517Z,5.00
2017-12-11T20:34:18.662Z,4.10
2017-12-11T20:36:45.757Z,3.80
2017-12-11T20:39:12.895Z,4.10
2017-12-11T20:41:39.717Z,3.73
2017-12-11T20:44:07.191Z,3.37
2017-12-11T20:46:34.309Z,3.83
2017-12-11T20:49:01.115Z,4.00
2017-12-11T20:51:27.878Z,3.70
2017-12-11T20:53:55.405Z,3.90
2017-12-11T20:56:22.168Z,3.43
2017-12-11T20:58:50.031Z,3.40
2017-12-11T21:01:16.832Z,3.40
2017-12-11T21:03:43.605Z,3.00
2017-12-11T21:06:10.357Z,2.67
2017-12-11T21:08:37.154Z,4.10
2017-12-11T21:11:03.933Z,3.37
2017-12-11T21:13:30.725Z,3.60
2017-12-11T21:15:57.515Z,3.00
2017-12-11T21:18:24.327Z,3.70
2017-12-11T21:20:55.193Z,2.97
2017-12-11T21:23:21.999Z,2.73
2017-12-11T21:25:52.132Z,3.03
2017-12-11T21:28:19.337Z,3.13
2017-12-11T21:30:46.221Z,3.53
2017-12-11T21:33:13.289Z,2.97
2017-12-11T21:35:42.592Z,3.30
2017-12-11T21:38:09.459Z,3.20
2017-12-11T21:40:36.405Z,2.93
2017-12-11T21:43:06.097Z,3.20
2017-12-11T21:45:32.897Z,3.03
2017-12-11T21:47:59.716Z,3.87
2017-12-11T21:50:26.493Z,3.40
2017-12-11T21:52:53.297Z,2.80
2017-12-11T21:55:20.093Z,3.60
2017-12-11T21:57:46.868Z,3.33
2017-12-11T22:00:13.617Z,2.70
2017-12-11T22:02:40.388Z,2.47
2017-12-11T22:05:07.208Z,3.67
2017-12-11T22:07:33.999Z,3.53
2017-12-11T22:10:00.806Z,3.00
2017-12-11T22:12:27.643Z,3.30
2017-12-11T22:14:54.487Z,2.70
2017-12-11T22:17:21.257Z,3.50
2017-12-11T22:19:48.067Z,3.67
2017-12-11T22:22:14.916Z,2.80
2017-12-11T22:24:41.694Z,2.90
2017-12-11T22:27:08.504Z,3.30
2017-12-11T22:29:35.353Z,3.30
2017-12-11T22:32:02.140Z,3.27
2017-12-11T22:34:28.914Z,3.17
2017-12-11T22:36:55.709Z,2.90
2017-12-11T22:39:22.505Z,3.60
2017-12-11T22:41:49.252Z,3.87
2017-12-11T22:44:16.012Z,2.90
2017-12-11T22:46:42.775Z,3.50
2017-12-11T22:49:09.525Z,3.10
2017-12-11T22:51:36.297Z,3.60
2017-12-11T22:54:03.054Z,3.80
2017-12-11T22:56:29.813Z,3.47
2017-12-11T22:58:56.591Z,3.37
2017-12-11T23:01:23.320Z,3.00
2017-12-11T23:03:50.066Z,2.93
2017-12-11T23:06:16.869Z,3.17
2017-12-11T23:08:43.610Z,2.80
2017-12-11T23:11:10.443Z,3.13
2017-12-11T23:13:37.246Z,3.97
2017-12-11T23:16:04.031Z,3.23
2017-12-11T23:18:30.984Z,3.50
2017-12-11T23:20:57.788Z,3.53
2017-12-11T23:23:24.550Z,3.10
2017-12-11T23:25:51.323Z,3.67
2017-12-11T23:28:18.442Z,3.23
2017-12-11T23:30:45.231Z,3.80
2017-12-11T23:33:11.977Z,4.43
2017-12-11T23:35:38.756Z,3.40
2017-12-11T23:38:05.552Z,3.17
2017-12-11T23:40:32.356Z,3.37
2017-12-11T23:42:59.131Z,4.93
2017-12-11T23:45:25.874Z,3.70
2017-12-11T23:47:52.641Z,2.60
2017-12-11T23:50:19.417Z,3.77
2017-12-11T23:52:46.172Z,3.33
2017-12-11T23:55:12.878Z,3.10
2017-12-11T23:57:39.653Z,3.57
